sensor_id;sensor_type;location;lat;lon;timestamp;P1;durP1;ratioP1;P2;durP2;ratioP2
71303;SDS011;59091;47.446;19.148;2023-05-13T00:02:16;8.68;;;7.38;;
71303;SDS011;59091;47.446;19.148;2023-05-13T00:04:41;9.20;;;7.03;;
71303;SDS011;59091;47.446;19.148;2023-05-13T00:07:07;8.73;;;7.60;;
71303;SDS011;59091;47.446;19.148;2023-05-13T00:09:32;9.38;;;6.88;;
71303;SDS011;59091;47.446;19.148;2023-05-13T00:11:58;9.80;;;6.68;;
71303;SDS011;59091;47.446;19.148;2023-05-13T00:14:23;8.05;;;6.63;;
71303;SDS011;59091;47.446;19.148;2023-05-13T00:16:49;8.90;;;7.47;;
71303;SDS011;59091;47.446;19.148;2023-05-13T00:19:14;9.10;;;6.75;;
71303;SDS011;59091;47.446;19.148;2023-05-13T00:21:40;9.27;;;6.60;;
71303;SDS011;59091;47.446;19.148;2023-05-13T00:24:05;7.60;;;6.80;;
71303;SDS011;59091;47.446;19.148;2023-05-13T00:26:31;9.23;;;7.07;;
71303;SDS011;59091;47.446;19.148;2023-05-13T00:28:56;9.48;;;6.82;;
71303;SDS011;59091;47.446;19.148;2023-05-13T00:31:22;8.43;;;6.57;;
71303;SDS011;59091;47.446;19.148;2023-05-13T00:33:48;9.35;;;6.72;;
71303;SDS011;59091;47.446;19.148;2023-05-13T00:36:13;9.00;;;7.07;;
71303;SDS011;59091;47.446;19.148;2023-05-13T00:38:38;11.68;;;6.65;;
71303;SDS011;59091;47.446;19.148;2023-05-13T00:41:04;8.65;;;6.70;;
71303;SDS011;59091;47.446;19.148;2023-05-13T00:43:30;8.32;;;6.72;;
71303;SDS011;59091;47.446;19.148;2023-05-13T00:45:55;9.73;;;6.93;;
71303;SDS011;59091;47.446;19.148;2023-05-13T00:48:21;8.25;;;7.30;;
71303;SDS011;59091;47.446;19.148;2023-05-13T00:50:47;9.63;;;6.97;;
71303;SDS011;59091;47.446;19.148;2023-05-13T00:53:13;9.75;;;7.00;;
71303;SDS011;59091;47.446;19.148;2023-05-13T00:55:41;8.20;;;6.82;;
71303;SDS011;59091;47.446;19.148;2023-05-13T00:58:07;8.52;;;7.03;;
71303;SDS011;59091;47.446;19.148;2023-05-13T01:00:33;8.13;;;6.60;;
71303;SDS011;59091;47.446;19.148;2023-05-13T01:05:49;6.80;;;6.10;;
71303;SDS011;59091;47.446;19.148;2023-05-13T01:11:23;9.10;;;6.55;;
71303;SDS011;59091;47.446;19.148;2023-05-13T01:14:02;9.70;;;6.47;;
71303;SDS011;59091;47.446;19.148;2023-05-13T01:16:39;7.00;;;6.30;;
71303;SDS011;59091;47.446;19.148;2023-05-13T01:21:57;9.27;;;6.90;;
71303;SDS011;59091;47.446;19.148;2023-05-13T01:24:22;7.57;;;6.78;;
71303;SDS011;59091;47.446;19.148;2023-05-13T01:26:48;6.97;;;6.00;;
71303;SDS011;59091;47.446;19.148;2023-05-13T01:29:14;8.38;;;7.10;;
71303;SDS011;59091;47.446;19.148;2023-05-13T01:31:40;11.10;;;7.63;;
71303;SDS011;59091;47.446;19.148;2023-05-13T01:34:06;9.52;;;7.45;;
71303;SDS011;59091;47.446;19.148;2023-05-13T01:36:35;9.55;;;7.93;;
71303;SDS011;59091;47.446;19.148;2023-05-13T01:39:01;12.73;;;8.43;;
71303;SDS011;59091;47.446;19.148;2023-05-13T01:41:27;13.65;;;9.70;;
71303;SDS011;59091;47.446;19.148;2023-05-13T01:43:53;15.88;;;10.45;;
71303;SDS011;59091;47.446;19.148;2023-05-13T01:46:18;16.48;;;10.57;;
71303;SDS011;59091;47.446;19.148;2023-05-13T01:48:44;18.60;;;11.38;;
71303;SDS011;59091;47.446;19.148;2023-05-13T01:51:10;24.38;;;10.63;;
71303;SDS011;59091;47.446;19.148;2023-05-13T01:53:35;19.23;;;11.35;;
71303;SDS011;59091;47.446;19.148;2023-05-13T01:56:01;18.77;;;11.32;;
71303;SDS011;59091;47.446;19.148;2023-05-13T01:58:26;17.50;;;11.55;;
71303;SDS011;59091;47.446;19.148;2023-05-13T02:00:51;15.55;;;10.52;;
71303;SDS011;59091;47.446;19.148;2023-05-13T02:03:17;16.63;;;10.88;;
71303;SDS011;59091;47.446;19.148;2023-05-13T02:05:43;18.90;;;11.05;;
71303;SDS011;59091;47.446;19.148;2023-05-13T02:08:10;16.08;;;10.75;;
71303;SDS011;59091;47.446;19.148;2023-05-13T02:10:35;19.42;;;9.75;;
71303;SDS011;59091;47.446;19.148;2023-05-13T02:13:00;14.00;;;9.80;;
71303;SDS011;59091;47.446;19.148;2023-05-13T02:15:26;13.95;;;9.02;;
71303;SDS011;59091;47.446;19.148;2023-05-13T02:17:51;10.60;;;8.27;;
71303;SDS011;59091;47.446;19.148;2023-05-13T02:20:17;11.70;;;8.95;;
71303;SDS011;59091;47.446;19.148;2023-05-13T02:22:42;11.93;;;8.40;;
71303;SDS011;59091;47.446;19.148;2023-05-13T02:25:08;12.52;;;8.63;;
71303;SDS011;59091;47.446;19.148;2023-05-13T02:27:33;10.05;;;7.70;;
71303;SDS011;59091;47.446;19.148;2023-05-13T02:29:59;9.52;;;7.57;;
71303;SDS011;59091;47.446;19.148;2023-05-13T02:32:24;10.32;;;7.70;;
71303;SDS011;59091;47.446;19.148;2023-05-13T02:34:50;11.57;;;7.25;;
71303;SDS011;59091;47.446;19.148;2023-05-13T02:37:15;9.82;;;7.32;;
71303;SDS011;59091;47.446;19.148;2023-05-13T02:39:41;10.13;;;7.80;;
71303;SDS011;59091;47.446;19.148;2023-05-13T02:42:06;7.55;;;6.75;;
71303;SDS011;59091;47.446;19.148;2023-05-13T02:44:32;8.88;;;6.50;;
71303;SDS011;59091;47.446;19.148;2023-05-13T02:46:57;7.03;;;6.32;;
71303;SDS011;59091;47.446;19.148;2023-05-13T02:49:23;8.20;;;6.68;;
71303;SDS011;59091;47.446;19.148;2023-05-13T02:51:48;9.93;;;6.95;;
71303;SDS011;59091;47.446;19.148;2023-05-13T02:54:14;8.60;;;7.32;;
71303;SDS011;59091;47.446;19.148;2023-05-13T02:56:39;8.38;;;6.25;;
71303;SDS011;59091;47.446;19.148;2023-05-13T02:59:05;12.88;;;7.18;;
71303;SDS011;59091;47.446;19.148;2023-05-13T03:01:30;7.28;;;6.57;;
71303;SDS011;59091;47.446;19.148;2023-05-13T03:03:56;7.78;;;6.97;;
71303;SDS011;59091;47.446;19.148;2023-05-13T03:06:21;8.57;;;6.90;;
71303;SDS011;59091;47.446;19.148;2023-05-13T03:08:46;11.65;;;7.20;;
71303;SDS011;59091;47.446;19.148;2023-05-13T03:11:12;7.75;;;6.95;;
71303;SDS011;59091;47.446;19.148;2023-05-13T03:13:37;8.32;;;6.97;;
71303;SDS011;59091;47.446;19.148;2023-05-13T03:16:03;13.95;;;6.93;;
71303;SDS011;59091;47.446;19.148;2023-05-13T03:18:28;10.63;;;7.82;;
71303;SDS011;59091;47.446;19.148;2023-05-13T03:20:56;8.88;;;7.18;;
71303;SDS011;59091;47.446;19.148;2023-05-13T03:23:22;9.98;;;6.82;;
71303;SDS011;59091;47.446;19.148;2023-05-13T03:25:47;8.52;;;6.45;;
71303;SDS011;59091;47.446;19.148;2023-05-13T03:28:13;10.88;;;6.85;;
71303;SDS011;59091;47.446;19.148;2023-05-13T03:30:38;7.07;;;6.35;;
71303;SDS011;59091;47.446;19.148;2023-05-13T03:33:03;8.40;;;7.03;;
71303;SDS011;59091;47.446;19.148;2023-05-13T03:35:29;10.73;;;7.07;;
71303;SDS011;59091;47.446;19.148;2023-05-13T03:37:54;7.75;;;6.07;;
71303;SDS011;59091;47.446;19.148;2023-05-13T03:40:20;7.97;;;6.32;;
71303;SDS011;59091;47.446;19.148;2023-05-13T03:42:45;7.68;;;6.28;;
71303;SDS011;59091;47.446;19.148;2023-05-13T03:45:11;10.52;;;6.88;;
71303;SDS011;59091;47.446;19.148;2023-05-13T03:47:36;9.98;;;6.35;;
71303;SDS011;59091;47.446;19.148;2023-05-13T03:50:03;7.30;;;6.40;;
71303;SDS011;59091;47.446;19.148;2023-05-13T03:52:29;7.32;;;6.22;;
71303;SDS011;59091;47.446;19.148;2023-05-13T03:54:54;7.97;;;6.90;;
71303;SDS011;59091;47.446;19.148;2023-05-13T03:57:20;9.07;;;6.35;;
71303;SDS011;59091;47.446;19.148;2023-05-13T03:59:45;8.25;;;6.65;;
71303;SDS011;59091;47.446;19.148;2023-05-13T04:02:11;8.68;;;6.20;;
71303;SDS011;59091;47.446;19.148;2023-05-13T04:04:36;10.98;;;6.53;;
71303;SDS011;59091;47.446;19.148;2023-05-13T04:07:01;7.95;;;6.32;;
71303;SDS011;59091;47.446;19.148;2023-05-13T04:09:27;13.02;;;6.82;;
71303;SDS011;59091;47.446;19.148;2023-05-13T04:11:52;8.27;;;6.85;;
71303;SDS011;59091;47.446;19.148;2023-05-13T04:14:18;12.45;;;6.50;;
71303;SDS011;59091;47.446;19.148;2023-05-13T04:16:43;10.40;;;6.85;;
71303;SDS011;59091;47.446;19.148;2023-05-13T04:19:09;7.20;;;6.15;;
71303;SDS011;59091;47.446;19.148;2023-05-13T04:21:34;8.05;;;6.68;;
71303;SDS011;59091;47.446;19.148;2023-05-13T04:23:59;11.50;;;6.65;;
71303;SDS011;59091;47.446;19.148;2023-05-13T04:26:25;8.77;;;6.60;;
71303;SDS011;59091;47.446;19.148;2023-05-13T04:28:50;8.52;;;6.55;;
71303;SDS011;59091;47.446;19.148;2023-05-13T04:31:16;10.63;;;7.15;;
71303;SDS011;59091;47.446;19.148;2023-05-13T04:33:42;8.68;;;6.70;;
71303;SDS011;59091;47.446;19.148;2023-05-13T04:36:07;8.63;;;7.03;;
71303;SDS011;59091;47.446;19.148;2023-05-13T04:38:33;10.05;;;7.00;;
71303;SDS011;59091;47.446;19.148;2023-05-13T04:40:59;9.55;;;6.55;;
71303;SDS011;59091;47.446;19.148;2023-05-13T04:43:24;11.35;;;7.45;;
71303;SDS011;59091;47.446;19.148;2023-05-13T04:45:49;11.25;;;7.03;;
71303;SDS011;59091;47.446;19.148;2023-05-13T04:48:15;8.75;;;7.07;;
71303;SDS011;59091;47.446;19.148;2023-05-13T04:50:44;13.30;;;7.45;;
71303;SDS011;59091;47.446;19.148;2023-05-13T04:53:10;10.55;;;7.63;;
71303;SDS011;59091;47.446;19.148;2023-05-13T04:55:36;8.50;;;6.88;;
71303;SDS011;59091;47.446;19.148;2023-05-13T04:58:01;9.73;;;7.68;;
71303;SDS011;59091;47.446;19.148;2023-05-13T05:00:27;8.57;;;7.03;;
71303;SDS011;59091;47.446;19.148;2023-05-13T05:02:52;8.23;;;6.72;;
71303;SDS011;59091;47.446;19.148;2023-05-13T05:05:18;9.18;;;7.53;;
71303;SDS011;59091;47.446;19.148;2023-05-13T05:07:43;13.00;;;8.05;;
71303;SDS011;59091;47.446;19.148;2023-05-13T05:10:09;15.52;;;10.73;;
71303;SDS011;59091;47.446;19.148;2023-05-13T05:12:34;12.50;;;8.70;;
71303;SDS011;59091;47.446;19.148;2023-05-13T05:15:02;12.15;;;9.18;;
71303;SDS011;59091;47.446;19.148;2023-05-13T05:17:28;10.40;;;8.43;;
71303;SDS011;59091;47.446;19.148;2023-05-13T05:19:56;10.07;;;8.10;;
71303;SDS011;59091;47.446;19.148;2023-05-13T05:22:22;11.68;;;7.35;;
71303;SDS011;59091;47.446;19.148;2023-05-13T05:24:48;8.80;;;6.72;;
71303;SDS011;59091;47.446;19.148;2023-05-13T05:27:14;8.25;;;6.97;;
71303;SDS011;59091;47.446;19.148;2023-05-13T05:29:39;7.93;;;6.40;;
71303;SDS011;59091;47.446;19.148;2023-05-13T05:32:04;9.73;;;7.13;;
71303;SDS011;59091;47.446;19.148;2023-05-13T05:34:30;10.93;;;6.90;;
71303;SDS011;59091;47.446;19.148;2023-05-13T05:36:56;7.97;;;6.65;;
71303;SDS011;59091;47.446;19.148;2023-05-13T05:39:21;9.45;;;6.95;;
71303;SDS011;59091;47.446;19.148;2023-05-13T05:41:47;9.38;;;7.05;;
71303;SDS011;59091;47.446;19.148;2023-05-13T05:44:12;9.05;;;6.40;;
71303;SDS011;59091;47.446;19.148;2023-05-13T05:46:38;8.02;;;6.07;;
71303;SDS011;59091;47.446;19.148;2023-05-13T05:49:03;11.02;;;6.93;;
71303;SDS011;59091;47.446;19.148;2023-05-13T05:51:29;7.93;;;6.40;;
71303;SDS011;59091;47.446;19.148;2023-05-13T05:53:54;8.38;;;6.40;;
71303;SDS011;59091;47.446;19.148;2023-05-13T05:56:20;9.77;;;6.95;;
71303;SDS011;59091;47.446;19.148;2023-05-13T05:58:45;10.45;;;6.60;;
71303;SDS011;59091;47.446;19.148;2023-05-13T06:01:11;11.10;;;6.72;;
71303;SDS011;59091;47.446;19.148;2023-05-13T06:03:36;9.23;;;6.68;;
71303;SDS011;59091;47.446;19.148;2023-05-13T06:06:02;8.30;;;6.45;;
71303;SDS011;59091;47.446;19.148;2023-05-13T06:08:27;7.38;;;6.60;;
71303;SDS011;59091;47.446;19.148;2023-05-13T06:10:58;8.27;;;6.70;;
71303;SDS011;59091;47.446;19.148;2023-05-13T06:13:23;10.98;;;6.28;;
71303;SDS011;59091;47.446;19.148;2023-05-13T06:15:49;8.82;;;6.82;;
71303;SDS011;59091;47.446;19.148;2023-05-13T06:18:14;10.07;;;6.63;;
71303;SDS011;59091;47.446;19.148;2023-05-13T06:20:40;8.75;;;6.18;;
71303;SDS011;59091;47.446;19.148;2023-05-13T06:23:06;8.57;;;6.10;;
71303;SDS011;59091;47.446;19.148;2023-05-13T06:25:32;10.05;;;6.50;;
71303;SDS011;59091;47.446;19.148;2023-05-13T06:27:58;7.43;;;6.20;;
71303;SDS011;59091;47.446;19.148;2023-05-13T06:30:23;7.53;;;6.22;;
71303;SDS011;59091;47.446;19.148;2023-05-13T06:32:49;10.88;;;6.40;;
71303;SDS011;59091;47.446;19.148;2023-05-13T06:35:14;8.45;;;6.32;;
71303;SDS011;59091;47.446;19.148;2023-05-13T06:37:39;6.55;;;5.80;;
71303;SDS011;59091;47.446;19.148;2023-05-13T06:40:05;9.05;;;6.43;;
71303;SDS011;59091;47.446;19.148;2023-05-13T06:42:31;7.15;;;5.53;;
71303;SDS011;59091;47.446;19.148;2023-05-13T06:44:57;12.20;;;6.47;;
71303;SDS011;59091;47.446;19.148;2023-05-13T06:47:22;11.38;;;5.70;;
71303;SDS011;59091;47.446;19.148;2023-05-13T06:49:48;7.35;;;6.05;;
71303;SDS011;59091;47.446;19.148;2023-05-13T06:52:13;7.60;;;6.05;;
71303;SDS011;59091;47.446;19.148;2023-05-13T06:54:39;6.63;;;5.85;;
71303;SDS011;59091;47.446;19.148;2023-05-13T06:57:04;6.65;;;5.53;;
71303;SDS011;59091;47.446;19.148;2023-05-13T06:59:31;5.55;;;5.05;;
71303;SDS011;59091;47.446;19.148;2023-05-13T07:01:56;8.90;;;5.22;;
71303;SDS011;59091;47.446;19.148;2023-05-13T07:04:22;5.30;;;4.72;;
71303;SDS011;59091;47.446;19.148;2023-05-13T07:06:47;5.43;;;4.93;;
71303;SDS011;59091;47.446;19.148;2023-05-13T07:09:13;5.80;;;4.78;;
71303;SDS011;59091;47.446;19.148;2023-05-13T07:11:38;6.85;;;4.55;;
71303;SDS011;59091;47.446;19.148;2023-05-13T07:14:04;5.10;;;4.60;;
71303;SDS011;59091;47.446;19.148;2023-05-13T07:16:29;7.28;;;4.78;;
71303;SDS011;59091;47.446;19.148;2023-05-13T07:18:55;6.28;;;4.50;;
71303;SDS011;59091;47.446;19.148;2023-05-13T07:21:20;7.03;;;5.32;;
71303;SDS011;59091;47.446;19.148;2023-05-13T07:23:45;9.60;;;4.70;;
71303;SDS011;59091;47.446;19.148;2023-05-13T07:26:11;5.30;;;4.70;;
71303;SDS011;59091;47.446;19.148;2023-05-13T07:28:36;6.88;;;4.55;;
71303;SDS011;59091;47.446;19.148;2023-05-13T07:31:05;4.95;;;4.50;;
71303;SDS011;59091;47.446;19.148;2023-05-13T07:33:30;4.97;;;4.47;;
71303;SDS011;59091;47.446;19.148;2023-05-13T07:35:56;6.20;;;4.40;;
71303;SDS011;59091;47.446;19.148;2023-05-13T07:38:21;4.95;;;4.55;;
71303;SDS011;59091;47.446;19.148;2023-05-13T07:40:47;6.15;;;4.80;;
71303;SDS011;59091;47.446;19.148;2023-05-13T07:43:13;7.28;;;4.57;;
71303;SDS011;59091;47.446;19.148;2023-05-13T07:45:41;5.88;;;5.20;;
71303;SDS011;59091;47.446;19.148;2023-05-13T07:48:07;4.38;;;3.97;;
71303;SDS011;59091;47.446;19.148;2023-05-13T07:50:34;5.30;;;4.53;;
71303;SDS011;59091;47.446;19.148;2023-05-13T07:52:59;5.20;;;4.70;;
71303;SDS011;59091;47.446;19.148;2023-05-13T07:55:26;11.77;;;6.22;;
71303;SDS011;59091;47.446;19.148;2023-05-13T07:57:51;9.68;;;6.57;;
71303;SDS011;59091;47.446;19.148;2023-05-13T08:00:17;9.10;;;5.80;;
71303;SDS011;59091;47.446;19.148;2023-05-13T08:02:43;5.15;;;4.70;;
71303;SDS011;59091;47.446;19.148;2023-05-13T08:05:08;5.40;;;4.90;;
71303;SDS011;59091;47.446;19.148;2023-05-13T08:07:35;6.32;;;5.68;;
71303;SDS011;59091;47.446;19.148;2023-05-13T08:10:00;7.63;;;6.40;;
71303;SDS011;59091;47.446;19.148;2023-05-13T08:12:26;10.40;;;6.20;;
71303;SDS011;59091;47.446;19.148;2023-05-13T08:14:51;6.38;;;5.28;;
71303;SDS011;59091;47.446;19.148;2023-05-13T08:17:17;7.93;;;6.22;;
71303;SDS011;59091;47.446;19.148;2023-05-13T08:19:43;9.35;;;6.15;;
71303;SDS011;59091;47.446;19.148;2023-05-13T08:22:10;6.82;;;6.13;;
71303;SDS011;59091;47.446;19.148;2023-05-13T08:24:35;7.85;;;5.40;;
71303;SDS011;59091;47.446;19.148;2023-05-13T08:27:01;11.35;;;5.90;;
71303;SDS011;59091;47.446;19.148;2023-05-13T08:29:27;9.15;;;5.90;;
71303;SDS011;59091;47.446;19.148;2023-05-13T08:31:53;8.32;;;4.75;;
71303;SDS011;59091;47.446;19.148;2023-05-13T08:34:19;6.15;;;5.18;;
71303;SDS011;59091;47.446;19.148;2023-05-13T08:36:44;6.53;;;5.03;;
71303;SDS011;59091;47.446;19.148;2023-05-13T08:39:10;6.15;;;4.65;;
71303;SDS011;59091;47.446;19.148;2023-05-13T08:41:36;6.50;;;4.18;;
71303;SDS011;59091;47.446;19.148;2023-05-13T08:44:03;5.30;;;4.80;;
71303;SDS011;59091;47.446;19.148;2023-05-13T08:46:29;5.28;;;4.18;;
71303;SDS011;59091;47.446;19.148;2023-05-13T08:48:56;5.30;;;4.40;;
71303;SDS011;59091;47.446;19.148;2023-05-13T08:51:23;4.50;;;4.10;;
71303;SDS011;59091;47.446;19.148;2023-05-13T08:53:48;5.55;;;4.35;;
71303;SDS011;59091;47.446;19.148;2023-05-13T08:56:17;4.40;;;4.00;;
71303;SDS011;59091;47.446;19.148;2023-05-13T08:58:42;9.70;;;4.70;;
71303;SDS011;59091;47.446;19.148;2023-05-13T09:01:08;7.13;;;4.03;;
71303;SDS011;59091;47.446;19.148;2023-05-13T09:03:33;8.60;;;4.38;;
71303;SDS011;59091;47.446;19.148;2023-05-13T09:06:00;11.88;;;4.57;;
71303;SDS011;59091;47.446;19.148;2023-05-13T09:08:26;9.23;;;4.20;;
71303;SDS011;59091;47.446;19.148;2023-05-13T09:10:52;4.43;;;4.03;;
71303;SDS011;59091;47.446;19.148;2023-05-13T09:13:17;5.28;;;4.28;;
71303;SDS011;59091;47.446;19.148;2023-05-13T09:15:43;4.68;;;4.28;;
71303;SDS011;59091;47.446;19.148;2023-05-13T09:18:08;4.40;;;4.00;;
71303;SDS011;59091;47.446;19.148;2023-05-13T09:20:34;4.38;;;3.72;;
71303;SDS011;59091;47.446;19.148;2023-05-13T09:23:04;4.25;;;3.85;;
71303;SDS011;59091;47.446;19.148;2023-05-13T09:25:31;4.22;;;3.45;;
71303;SDS011;59091;47.446;19.148;2023-05-13T09:27:58;9.15;;;3.67;;
71303;SDS011;59091;47.446;19.148;2023-05-13T09:30:25;4.25;;;3.85;;
71303;SDS011;59091;47.446;19.148;2023-05-13T09:35:53;4.65;;;3.80;;
71303;SDS011;59091;47.446;19.148;2023-05-13T09:38:25;4.13;;;3.72;;
71303;SDS011;59091;47.446;19.148;2023-05-13T09:40:55;5.03;;;4.07;;
71303;SDS011;59091;47.446;19.148;2023-05-13T09:43:22;3.80;;;3.50;;
71303;SDS011;59091;47.446;19.148;2023-05-13T09:45:56;5.25;;;3.53;;
71303;SDS011;59091;47.446;19.148;2023-05-13T09:48:26;4.05;;;3.60;;
71303;SDS011;59091;47.446;19.148;2023-05-13T09:50:53;7.20;;;3.97;;
71303;SDS011;59091;47.446;19.148;2023-05-13T09:53:21;5.57;;;4.03;;
71303;SDS011;59091;47.446;19.148;2023-05-13T09:55:53;6.95;;;3.80;;
71303;SDS011;59091;47.446;19.148;2023-05-13T09:58:20;5.78;;;3.58;;
71303;SDS011;59091;47.446;19.148;2023-05-13T10:00:47;3.90;;;3.50;;
71303;SDS011;59091;47.446;19.148;2023-05-13T10:03:13;6.82;;;3.78;;
71303;SDS011;59091;47.446;19.148;2023-05-13T10:05:39;4.40;;;3.72;;
71303;SDS011;59091;47.446;19.148;2023-05-13T10:08:06;4.75;;;3.55;;
71303;SDS011;59091;47.446;19.148;2023-05-13T10:10:34;4.97;;;3.92;;
71303;SDS011;59091;47.446;19.148;2023-05-13T10:13:10;4.15;;;3.63;;
71303;SDS011;59091;47.446;19.148;2023-05-13T10:15:47;4.28;;;3.88;;
71303;SDS011;59091;47.446;19.148;2023-05-13T10:18:18;4.20;;;3.80;;
71303;SDS011;59091;47.446;19.148;2023-05-13T10:20:44;4.25;;;3.83;;
71303;SDS011;59091;47.446;19.148;2023-05-13T10:23:11;9.10;;;3.80;;
71303;SDS011;59091;47.446;19.148;2023-05-13T10:25:37;5.80;;;3.70;;
71303;SDS011;59091;47.446;19.148;2023-05-13T10:28:03;5.63;;;4.50;;
71303;SDS011;59091;47.446;19.148;2023-05-13T10:30:29;4.22;;;3.83;;
71303;SDS011;59091;47.446;19.148;2023-05-13T10:32:59;8.23;;;4.10;;
71303;SDS011;59091;47.446;19.148;2023-05-13T10:35:26;7.93;;;4.50;;
71303;SDS011;59091;47.446;19.148;2023-05-13T10:43:22;6.72;;;4.43;;
71303;SDS011;59091;47.446;19.148;2023-05-13T10:45:54;6.68;;;4.45;;
71303;SDS011;59091;47.446;19.148;2023-05-13T10:51:07;5.72;;;4.45;;
71303;SDS011;59091;47.446;19.148;2023-05-13T10:53:46;4.95;;;4.53;;
71303;SDS011;59091;47.446;19.148;2023-05-13T10:56:18;7.00;;;4.38;;
71303;SDS011;59091;47.446;19.148;2023-05-13T10:59:02;9.50;;;5.10;;
71303;SDS011;59091;47.446;19.148;2023-05-13T11:01:29;6.20;;;4.63;;
71303;SDS011;59091;47.446;19.148;2023-05-13T11:03:58;9.30;;;5.07;;
71303;SDS011;59091;47.446;19.148;2023-05-13T11:06:35;10.38;;;5.38;;
71303;SDS011;59091;47.446;19.148;2023-05-13T11:09:05;12.65;;;5.75;;
71303;SDS011;59091;47.446;19.148;2023-05-13T11:11:33;8.68;;;5.53;;
71303;SDS011;59091;47.446;19.148;2023-05-13T11:14:07;6.78;;;5.07;;
71303;SDS011;59091;47.446;19.148;2023-05-13T11:16:41;5.43;;;4.70;;
71303;SDS011;59091;47.446;19.148;2023-05-13T11:19:25;10.32;;;5.78;;
71303;SDS011;59091;47.446;19.148;2023-05-13T11:21:52;5.72;;;5.13;;
71303;SDS011;59091;47.446;19.148;2023-05-13T11:24:19;7.53;;;5.10;;
71303;SDS011;59091;47.446;19.148;2023-05-13T11:26:56;10.48;;;5.50;;
71303;SDS011;59091;47.446;19.148;2023-05-13T11:29:27;9.00;;;5.15;;
71303;SDS011;59091;47.446;19.148;2023-05-13T11:32:01;9.75;;;5.20;;
71303;SDS011;59091;47.446;19.148;2023-05-13T11:34:28;7.47;;;5.40;;
71303;SDS011;59091;47.446;19.148;2023-05-13T11:39:29;10.68;;;5.43;;
71303;SDS011;59091;47.446;19.148;2023-05-13T11:41:55;7.32;;;5.20;;
71303;SDS011;59091;47.446;19.148;2023-05-13T11:44:22;7.40;;;5.43;;
71303;SDS011;59091;47.446;19.148;2023-05-13T11:49:43;7.32;;;5.20;;
71303;SDS011;59091;47.446;19.148;2023-05-13T11:52:13;7.47;;;5.20;;
71303;SDS011;59091;47.446;19.148;2023-05-13T11:55:00;7.50;;;5.40;;
71303;SDS011;59091;47.446;19.148;2023-05-13T11:57:25;6.57;;;5.05;;
71303;SDS011;59091;47.446;19.148;2023-05-13T11:59:55;7.55;;;5.45;;
71303;SDS011;59091;47.446;19.148;2023-05-13T12:02:26;6.70;;;5.30;;
71303;SDS011;59091;47.446;19.148;2023-05-13T12:04:53;8.07;;;5.22;;
71303;SDS011;59091;47.446;19.148;2023-05-13T12:07:19;11.60;;;5.10;;
71303;SDS011;59091;47.446;19.148;2023-05-13T12:09:49;6.20;;;4.90;;
71303;SDS011;59091;47.446;19.148;2023-05-13T12:12:15;9.45;;;5.43;;
71303;SDS011;59091;47.446;19.148;2023-05-13T12:14:45;11.38;;;4.93;;
71303;SDS011;59091;47.446;19.148;2023-05-13T12:17:14;6.57;;;4.47;;
71303;SDS011;59091;47.446;19.148;2023-05-13T12:19:40;7.30;;;4.55;;
71303;SDS011;59091;47.446;19.148;2023-05-13T12:22:28;6.28;;;4.88;;
71303;SDS011;59091;47.446;19.148;2023-05-13T12:24:53;5.75;;;4.75;;
71303;SDS011;59091;47.446;19.148;2023-05-13T12:27:19;7.07;;;5.00;;
71303;SDS011;59091;47.446;19.148;2023-05-13T12:29:45;9.00;;;5.72;;
71303;SDS011;59091;47.446;19.148;2023-05-13T12:32:11;8.35;;;5.38;;
71303;SDS011;59091;47.446;19.148;2023-05-13T12:34:42;7.03;;;5.22;;
71303;SDS011;59091;47.446;19.148;2023-05-13T12:37:13;5.85;;;4.90;;
71303;SDS011;59091;47.446;19.148;2023-05-13T12:39:39;8.35;;;5.25;;
71303;SDS011;59091;47.446;19.148;2023-05-13T12:42:06;10.15;;;5.60;;
71303;SDS011;59091;47.446;19.148;2023-05-13T12:44:38;7.50;;;5.33;;
71303;SDS011;59091;47.446;19.148;2023-05-13T12:47:08;9.95;;;6.38;;
71303;SDS011;59091;47.446;19.148;2023-05-13T12:49:35;9.63;;;5.70;;
71303;SDS011;59091;47.446;19.148;2023-05-13T12:52:14;6.85;;;5.15;;
71303;SDS011;59091;47.446;19.148;2023-05-13T12:54:40;7.57;;;5.15;;
71303;SDS011;59091;47.446;19.148;2023-05-13T12:57:09;8.45;;;5.57;;
71303;SDS011;59091;47.446;19.148;2023-05-13T12:59:34;5.70;;;4.55;;
71303;SDS011;59091;47.446;19.148;2023-05-13T13:02:00;5.78;;;5.18;;
71303;SDS011;59091;47.446;19.148;2023-05-13T13:04:25;6.40;;;4.75;;
71303;SDS011;59091;47.446;19.148;2023-05-13T13:06:51;7.15;;;4.88;;
71303;SDS011;59091;47.446;19.148;2023-05-13T13:09:16;6.85;;;4.85;;
71303;SDS011;59091;47.446;19.148;2023-05-13T13:11:41;5.63;;;4.80;;
71303;SDS011;59091;47.446;19.148;2023-05-13T13:14:07;7.65;;;4.82;;
71303;SDS011;59091;47.446;19.148;2023-05-13T13:16:32;6.25;;;4.35;;
71303;SDS011;59091;47.446;19.148;2023-05-13T13:18:58;7.32;;;4.80;;
71303;SDS011;59091;47.446;19.148;2023-05-13T13:21:24;8.85;;;5.63;;
71303;SDS011;59091;47.446;19.148;2023-05-13T13:23:49;5.57;;;4.80;;
71303;SDS011;59091;47.446;19.148;2023-05-13T13:26:15;9.70;;;5.55;;
71303;SDS011;59091;47.446;19.148;2023-05-13T13:28:40;9.25;;;5.40;;
71303;SDS011;59091;47.446;19.148;2023-05-13T13:31:06;8.63;;;5.28;;
71303;SDS011;59091;47.446;19.148;2023-05-13T13:33:32;6.95;;;4.85;;
71303;SDS011;59091;47.446;19.148;2023-05-13T13:35:57;7.18;;;5.28;;
71303;SDS011;59091;47.446;19.148;2023-05-13T13:38:23;9.07;;;5.88;;
71303;SDS011;59091;47.446;19.148;2023-05-13T13:40:48;9.63;;;4.90;;
71303;SDS011;59091;47.446;19.148;2023-05-13T13:43:13;9.15;;;5.35;;
71303;SDS011;59091;47.446;19.148;2023-05-13T13:45:39;7.65;;;4.85;;
71303;SDS011;59091;47.446;19.148;2023-05-13T13:48:05;8.35;;;4.97;;
71303;SDS011;59091;47.446;19.148;2023-05-13T13:50:30;5.90;;;4.88;;
71303;SDS011;59091;47.446;19.148;2023-05-13T13:52:56;7.03;;;4.90;;
71303;SDS011;59091;47.446;19.148;2023-05-13T13:55:21;6.63;;;4.35;;
71303;SDS011;59091;47.446;19.148;2023-05-13T13:57:48;10.63;;;5.13;;
71303;SDS011;59091;47.446;19.148;2023-05-13T14:00:14;8.88;;;4.88;;
71303;SDS011;59091;47.446;19.148;2023-05-13T14:02:40;4.97;;;4.47;;
71303;SDS011;59091;47.446;19.148;2023-05-13T14:05:09;6.72;;;4.72;;
71303;SDS011;59091;47.446;19.148;2023-05-13T14:07:35;4.93;;;4.22;;
71303;SDS011;59091;47.446;19.148;2023-05-13T14:10:01;5.93;;;4.88;;
71303;SDS011;59091;47.446;19.148;2023-05-13T14:12:27;7.38;;;4.97;;
71303;SDS011;59091;47.446;19.148;2023-05-13T14:14:53;6.45;;;4.50;;
71303;SDS011;59091;47.446;19.148;2023-05-13T14:17:18;7.82;;;4.93;;
71303;SDS011;59091;47.446;19.148;2023-05-13T14:19:44;5.68;;;4.70;;
71303;SDS011;59091;47.446;19.148;2023-05-13T14:22:10;5.25;;;4.53;;
71303;SDS011;59091;47.446;19.148;2023-05-13T14:24:35;6.95;;;4.75;;
71303;SDS011;59091;47.446;19.148;2023-05-13T14:27:01;5.47;;;4.53;;
71303;SDS011;59091;47.446;19.148;2023-05-13T14:29:26;6.20;;;4.68;;
71303;SDS011;59091;47.446;19.148;2023-05-13T14:31:52;7.07;;;4.80;;
71303;SDS011;59091;47.446;19.148;2023-05-13T14:34:17;7.80;;;5.15;;
71303;SDS011;59091;47.446;19.148;2023-05-13T14:36:42;6.07;;;4.25;;
71303;SDS011;59091;47.446;19.148;2023-05-13T14:39:08;8.73;;;4.45;;
71303;SDS011;59091;47.446;19.148;2023-05-13T14:41:35;7.40;;;5.05;;
71303;SDS011;59091;47.446;19.148;2023-05-13T14:44:00;7.80;;;5.13;;
71303;SDS011;59091;47.446;19.148;2023-05-13T14:46:27;6.50;;;5.07;;
71303;SDS011;59091;47.446;19.148;2023-05-13T14:48:53;9.50;;;4.55;;
71303;SDS011;59091;47.446;19.148;2023-05-13T14:51:18;6.65;;;5.05;;
71303;SDS011;59091;47.446;19.148;2023-05-13T14:53:44;8.32;;;5.03;;